Heathsville, Virginia
Current Conditions -  °F | °C
As of 1:53 PM on Tuesday 21 Oct 2014 (Local Time) from KNUI Reporting Station
Few Clouds Few Clouds  
Wind Chill: 70°   Ceiling: Unl
Heat Index: 70°   Visibility: 9mi
Dew Point: 49°   Wind: 5mph
Humidity: 47%   Direction: 220°SW
Pressure: 29.82"   Gusts: NA
Location:  37.92°N, 76.47°W
Report Text: KNUI 211753Z AUTO 22004KT 9SM FEW043 21/09 A2982 RMK AO2 SLP097 T02110094 10211 20144 58016
Loading
Personal Weather Stations






























Interactive Weather Map
Tropical Storm Tracking
New forecast layout! Learn more

10-Day Weather Forecast

Advertisements
Track Severe Weather on mobile